Time;durP1;ratioP1;P1;durP2;ratioP2;P2;SDS_P1;SDS_P2;PMS_P1;PMS_P2;Temp;Humidity;BMP_temperature;BMP_pressure;BME280_temperature;BME280_humidity;BME280_pressure;Samples;Min_cycle;Max_cycle;Signal;HPM_P1;HPM_P2
2022/09/28 00:06:48;;;;;;;6.50;5.90;;;;;;;8.93;89.95;97733.61;430268;1275;147967;-64
2022/09/28 00:16:54;;;;;;;10.90;5.20;;;;;;;8.71;89.85;97717.73;430233;1275;146960;-62
2022/09/28 00:27:01;;;;;;;4.60;4.20;;;;;;;8.49;90.35;97714.52;429670;1275;143842;-63
2022/09/28 00:37:13;;;;;;;5.10;4.30;;;;;;;8.36;90.68;97715.45;429867;1275;142364;-61
2022/09/28 00:47:31;;;;;;;3.80;3.40;;;;;;;8.25;90.92;97709.86;431786;1275;187816;-60
2022/09/28 00:57:44;;;;;;;5.30;4.80;;;;;;;8.11;91.16;97710.50;432140;1275;141985;-62
2022/09/28 01:07:55;;;;;;;4.50;4.00;;;;;;;7.98;91.46;97711.28;430253;1275;142321;-62
2022/09/28 01:18:12;;;;;;;4.40;3.90;;;;;;;7.86;91.77;97705.93;431576;1275;145834;-62
2022/09/28 01:28:20;;;;;;;4.70;4.20;;;;;;;7.83;92.00;97699.94;428905;1275;145873;-62
2022/09/28 01:38:29;;;;;;;4.30;3.90;;;;;;;7.76;91.81;97700.20;429765;1274;143609;-61
2022/09/28 01:48:41;;;;;;;6.10;4.60;;;;;;;7.65;91.98;97690.80;433929;1275;142465;-61
2022/09/28 01:58:53;;;;;;;6.30;4.20;;;;;;;7.57;91.93;97692.27;431669;1274;147072;-61
2022/09/28 02:09:03;;;;;;;4.20;3.80;;;;;;;7.41;92.05;97689.77;430238;1275;146392;-62
2022/09/28 02:19:11;;;;;;;5.70;4.50;;;;;;;7.33;92.40;97692.17;433794;1275;142840;-62
2022/09/28 02:29:16;;;;;;;;;;;;;;;7.30;92.58;97698.84;429223;1273;143154;-62
2022/09/28 02:39:22;;;;;;;5.40;4.90;;;;;;;7.26;92.79;97712.02;430608;1273;129943;-64
2022/09/28 02:49:34;;;;;;;6.30;5.00;;;;;;;7.13;92.68;97703.17;429762;1273;146783;-61
2022/09/28 02:59:53;;;;;;;6.40;5.80;;;;;;;6.89;92.65;97715.66;429040;1274;143859;-63
2022/09/28 03:10:05;;;;;;;7.50;6.60;;;;;;;6.68;92.90;97723.20;430474;1273;143593;-64
2022/09/28 03:20:12;;;;;;;8.80;7.40;;;;;;;6.54;93.07;97736.77;429702;1273;142671;-62
2022/09/28 03:30:18;;;;;;;9.20;8.20;;;;;;;6.28;92.81;97733.50;430505;1273;142315;-63
2022/09/28 03:40:24;;;;;;;8.20;7.40;;;;;;;6.01;93.01;97740.05;431854;1273;146758;-61
2022/09/28 03:50:30;;;;;;;9.30;7.70;;;;;;;5.76;92.97;97739.80;429987;1272;142704;-62
2022/09/28 04:00:37;;;;;;;9.00;8.10;;;;;;;5.75;94.01;97738.81;431363;1273;142835;-62
2022/09/28 04:10:43;;;;;;;13.00;9.90;;;;;;;6.00;94.55;97734.73;430881;1273;143583;-61
2022/09/28 04:20:58;;;;;;;9.70;8.70;;;;;;;6.08;94.27;97735.92;429746;1273;149060;-62
2022/09/28 04:31:03;;;;;;;10.50;9.40;;;;;;;5.84;93.76;97737.81;430768;1273;142737;-62
2022/09/28 04:41:10;;;;;;;9.50;8.40;;;;;;;5.53;93.62;97730.69;429655;1273;144031;-61
2022/09/28 04:51:16;;;;;;;10.50;9.20;;;;;;;5.33;93.73;97728.66;432291;1273;143548;-62
2022/09/28 05:01:23;;;;;;;12.20;9.20;;;;;;;5.22;93.88;97736.41;436378;1273;182266;-61
2022/09/28 05:11:28;;;;;;;11.50;10.00;;;;;;;5.36;94.47;97745.28;438561;1273;198869;-62
2022/09/28 05:21:34;;;;;;;9.40;7.80;;;;;;;5.68;94.70;97749.04;442440;1275;146712;-61
2022/09/28 05:31:40;;;;;;;8.40;7.40;;;;;;;6.28;95.03;97742.33;447057;1272;144781;-62
2022/09/28 05:41:45;;;;;;;6.70;6.10;;;;;;;9.07;94.48;97742.48;446260;1272;186632;-62
2022/09/28 05:51:51;;;;;;;7.70;4.90;;;;;;;13.48;87.92;97739.55;447042;1273;143565;-62
2022/09/28 06:01:57;;;;;;;7.20;5.30;;;;;;;17.01;80.31;97739.42;439196;1273;195068;-62
2022/09/28 06:12:03;;;;;;;5.20;3.90;;;;;;;20.88;74.23;97731.77;441665;1272;143895;-63
2022/09/28 06:22:08;;;;;;;4.60;3.80;;;;;;;22.45;66.96;97722.16;447088;1273;143398;-62
2022/09/28 06:32:14;;;;;;;5.00;4.60;;;;;;;24.67;61.26;97718.87;446332;1273;147265;-61
2022/09/28 06:42:20;;;;;;;3.90;3.50;;;;;;;22.31;58.57;97720.81;447055;1273;142910;-62
2022/09/28 06:52:26;;;;;;;4.80;4.10;;;;;;;24.41;56.59;97722.05;446762;1275;142333;-63
2022/09/28 07:02:31;;;;;;;6.60;3.80;;;;;;;29.24;51.67;97717.46;444164;1273;141675;-62
2022/09/28 07:12:39;;;;;;;7.30;3.90;;;;;;;31.64;46.06;97721.27;447131;1273;143987;-62
2022/09/28 07:22:47;;;;;;;3.00;2.50;;;;;;;32.46;42.70;97727.31;447106;1273;142949;-61
2022/09/28 07:32:52;;;;;;;2.30;2.10;;;;;;;30.68;40.50;97735.23;446264;1273;146590;-62
2022/09/28 07:43:05;;;;;;;2.60;2.40;;;;;;;31.10;39.58;97727.77;446791;1274;142102;-62
2022/09/28 07:53:11;;;;;;;2.30;1.90;;;;;;;32.61;37.44;97721.89;445964;1275;143559;-62
2022/09/28 08:03:18;;;;;;;4.80;3.00;;;;;;;30.99;37.19;97723.30;436934;1274;141882;-62
2022/09/28 08:13:25;;;;;;;1.80;1.70;;;;;;;35.71;33.91;97714.48;430279;1274;143185;-61
2022/09/28 08:23:31;;;;;;;1.90;1.80;;;;;;;38.29;31.45;97703.50;446104;1274;143039;-62
2022/09/28 08:33:37;;;;;;;1.70;1.30;;;;;;;40.34;28.66;97704.77;446867;1274;141999;-61
2022/09/28 08:43:54;;;;;;;7.00;2.00;;;;;;;40.31;27.52;97702.15;446923;1273;142421;-61
2022/09/28 08:54:09;;;;;;;1.10;1.10;;;;;;;40.39;26.18;97700.77;446118;1273;191028;-61
2022/09/28 09:04:16;;;;;;;4.70;1.40;;;;;;;32.54;27.65;97705.17;442166;1273;142081;-61
2022/09/28 09:14:29;;;;;;;;;;;;;;;26.46;31.05;97713.60;446352;1272;182188;-62
2022/09/28 09:24:45;;;;;;;2.20;1.40;;;;;;;23.29;34.11;97712.65;447358;1273;131226;-62
2022/09/28 09:35:07;;;;;;;4.20;1.50;;;;;;;20.64;36.78;97721.95;447113;1273;142739;-62
2022/09/28 09:45:26;;;;;;;2.40;2.10;;;;;;;18.77;39.26;97728.79;442807;1274;141013;-62
2022/09/28 09:55:39;;;;;;;5.60;2.10;;;;;;;17.88;41.87;97720.02;445673;1274;142077;-66
2022/09/28 10:05:48;;;;;;;1.30;1.30;;;;;;;17.53;42.83;97725.73;435471;1275;145299;-68
2022/09/28 10:15:54;;;;;;;1.40;1.10;;;;;;;17.03;43.57;97729.67;446637;1274;145083;-68
2022/09/28 10:26:06;;;;;;;2.20;1.80;;;;;;;16.68;44.56;97733.36;446657;1274;141507;-68
2022/09/28 10:36:12;;;;;;;2.40;1.50;;;;;;;16.47;45.10;97726.84;446638;1274;142326;-68
2022/09/28 10:46:24;;;;;;;2.20;1.00;;;;;;;16.22;45.66;97735.27;446452;1275;142296;-67
2022/09/28 10:56:35;;;;;;;1.20;0.90;;;;;;;15.67;46.57;97733.55;446042;1274;142323;-68
2022/09/28 11:06:41;;;;;;;1.80;1.30;;;;;;;15.69;47.03;97734.23;446368;1275;142379;-68
2022/09/28 11:16:47;;;;;;;1.90;1.00;;;;;;;16.01;47.21;97734.45;446942;1274;146402;-63
2022/09/28 11:26:56;;;;;;;1.20;0.90;;;;;;;16.00;46.82;97734.79;445923;1275;141822;-63
2022/09/28 11:37:22;;;;;;;4.50;1.60;;;;;;;15.80;47.15;97737.36;446901;1274;143501;-63
2022/09/28 11:47:46;;;;;;;2.20;2.00;;;;;;;15.48;47.43;97729.36;446287;1273;192600;-63
2022/09/28 11:58:00;;;;;;;1.30;1.20;;;;;;;15.37;48.13;97724.34;447077;1272;141470;-63
2022/09/28 12:08:13;;;;;;;1.70;0.70;;;;;;;15.64;47.85;97721.29;431129;1273;164249;-61
2022/09/28 12:18:24;;;;;;;0.70;0.70;;;;;;;15.91;47.17;97716.73;447088;1272;142110;-61
2022/09/28 12:28:38;;;;;;;2.90;0.90;;;;;;;15.97;47.06;97710.42;447046;1273;145139;-62
2022/09/28 12:39:02;;;;;;;5.80;1.10;;;;;;;15.37;47.09;97718.25;445413;1273;141954;-62
2022/09/28 12:49:33;;;;;;;3.30;0.90;;;;;;;15.13;47.35;97709.58;447072;1273;142731;-62
2022/09/28 13:00:05;;;;;;;2.20;1.10;;;;;;;14.77;47.61;97706.08;446265;1272;141809;-62
2022/09/28 13:10:23;;;;;;;2.60;0.90;;;;;;;14.47;48.65;97691.11;439241;1273;151213;-63
2022/09/28 13:20:42;;;;;;;1.50;1.30;;;;;;;14.62;48.96;97682.73;445978;1275;143542;-62
2022/09/28 13:30:50;;;;;;;1.10;0.90;;;;;;;15.08;48.86;97673.26;447080;1273;142808;-62
2022/09/28 13:41:17;;;;;;;2.70;1.70;;;;;;;14.89;48.28;97676.79;447061;1273;202231;-63
2022/09/28 13:51:33;;;;;;;3.60;1.30;;;;;;;14.75;48.44;97671.86;446987;1272;142059;-62
2022/09/28 14:01:42;;;;;;;2.00;1.30;;;;;;;14.41;48.86;97687.48;444953;1272;141929;-61
2022/09/28 14:11:58;;;;;;;1.80;1.70;;;;;;;13.77;49.95;97687.71;434988;1273;142767;-62
2022/09/28 14:22:19;;;;;;;5.20;3.80;;;;;;;13.32;52.20;97681.20;447025;1273;142029;-63
2022/09/28 14:32:34;;;;;;;6.50;4.90;;;;;;;12.87;53.31;97679.89;445620;1275;162940;-62
2022/09/28 14:42:40;;;;;;;6.80;4.60;;;;;;;12.43;54.57;97676.80;447028;1271;143041;-63
2022/09/28 14:52:50;;;;;;;3.90;2.80;;;;;;;12.45;55.89;97670.13;437781;1273;141516;-62
2022/09/28 15:02:59;;;;;;;4.60;3.10;;;;;;;12.19;57.40;97674.70;429411;1273;143218;-63
2022/09/28 15:13:17;;;;;;;3.90;3.10;;;;;;;12.00;58.54;97676.52;431655;1273;141019;-62
2022/09/28 15:23:33;;;;;;;6.50;5.70;;;;;;;11.93;60.10;97690.27;430775;1273;142593;-62
2022/09/28 15:44:28;;;;;;;5.60;4.30;;;;;;;11.50;63.22;97696.73;430478;1273;164875;-63
2022/09/28 15:54:42;;;;;;;5.20;3.40;;;;;;;11.27;64.72;97676.85;432246;1273;142610;-60
2022/09/28 16:04:50;;;;;;;6.70;5.10;;;;;;;11.02;65.64;97668.73;430613;1275;141470;-60
2022/09/28 16:14:58;;;;;;;6.50;4.90;;;;;;;10.80;66.93;97682.25;430070;1273;148649;-63
2022/09/28 16:25:04;;;;;;;11.10;9.10;;;;;;;10.62;67.93;97690.38;430804;1273;142739;-63
2022/09/28 16:35:24;;;;;;;21.90;16.70;;;;;;;10.47;68.70;97706.46;429460;1273;142966;-60
2022/09/28 16:45:30;;;;;;;26.50;20.40;;;;;;;10.28;69.55;97712.23;430026;1273;142697;-62
2022/09/28 16:55:37;;;;;;;14.20;10.80;;;;;;;10.10;70.50;97712.10;430046;1273;144286;-61
2022/09/28 17:05:47;;;;;;;16.90;12.60;;;;;;;9.87;71.21;97708.21;429805;1271;143023;-63
2022/09/28 17:15:53;;;;;;;13.30;10.30;;;;;;;9.66;72.00;97703.48;430465;1275;143934;-62
2022/09/28 17:26:00;;;;;;;12.80;10.90;;;;;;;9.52;72.86;97707.02;430061;1273;142428;-63
2022/09/28 17:36:12;;;;;;;9.30;7.00;;;;;;;9.46;73.53;97704.73;431062;1273;142515;-62
2022/09/28 17:46:26;;;;;;;9.30;7.20;;;;;;;9.36;74.45;97692.73;430301;1273;141892;-63
2022/09/28 17:56:33;;;;;;;8.20;7.40;;;;;;;9.24;75.23;97693.91;430544;1273;145978;-62
2022/09/28 18:06:43;;;;;;;7.00;6.40;;;;;;;9.10;75.97;97692.86;431407;1273;141819;-62
2022/09/28 18:16:50;;;;;;;8.80;6.70;;;;;;;8.97;76.87;97699.95;433889;1273;144310;-61
2022/09/28 18:26:55;;;;;;;8.20;5.40;;;;;;;8.91;77.39;97703.47;437207;1272;141889;-62
2022/09/28 18:37:01;;;;;;;15.60;11.50;;;;;;;8.93;77.90;97713.59;430848;1275;142105;-59
2022/09/28 18:47:08;;;;;;;13.70;9.70;;;;;;;8.92;78.41;97716.47;429230;1273;146510;-64
2022/09/28 18:57:14;;;;;;;11.20;6.80;;;;;;;8.91;78.66;97720.06;430094;1273;142022;-60
2022/09/28 19:07:20;;;;;;;8.80;6.70;;;;;;;8.91;79.07;97726.48;432354;1273;143008;-62
2022/09/28 19:17:26;;;;;;;12.50;8.40;;;;;;;8.93;79.43;97730.88;429330;1274;144481;-63
2022/09/28 19:27:31;;;;;;;14.80;10.20;;;;;;;8.92;79.98;97742.59;430499;1273;144809;-62
2022/09/28 19:37:38;;;;;;;12.70;9.90;;;;;;;8.88;80.17;97752.91;430463;1273;142473;-62
2022/09/28 19:47:43;;;;;;;10.50;9.20;;;;;;;8.81;80.37;97759.47;429909;1273;141585;-61
2022/09/28 19:57:49;;;;;;;18.20;12.30;;;;;;;8.65;80.41;97764.11;431061;1273;142260;-62
2022/09/28 20:07:55;;;;;;;13.70;11.90;;;;;;;8.50;80.80;97770.20;430655;1273;143088;-63
2022/09/28 20:18:01;;;;;;;12.30;9.10;;;;;;;8.13;81.15;97774.88;429678;1273;142719;-61
2022/09/28 20:28:07;;;;;;;12.70;11.30;;;;;;;7.68;81.70;97775.38;430391;1273;143476;-64
2022/09/28 20:38:13;;;;;;;14.00;11.60;;;;;;;7.32;82.50;97785.16;429960;1272;141825;-63
2022/09/28 20:48:19;;;;;;;17.40;12.60;;;;;;;7.02;83.04;97783.52;429587;1273;284595;-62
2022/09/28 20:58:24;;;;;;;15.50;11.50;;;;;;;6.76;83.58;97799.30;430530;1273;147828;-63
2022/09/28 21:08:30;;;;;;;15.20;11.10;;;;;;;6.53;84.12;97815.64;429085;1273;143839;-64
2022/09/28 21:18:36;;;;;;;15.30;11.60;;;;;;;6.36;84.57;97816.33;431344;1275;142667;-62
2022/09/28 21:28:43;;;;;;;9.70;7.50;;;;;;;6.17;84.90;97821.93;430546;1273;142105;-62
2022/09/28 21:38:49;;;;;;;10.00;7.90;;;;;;;6.02;85.38;97825.63;433492;1273;141948;-62
2022/09/28 21:48:55;;;;;;;8.60;7.10;;;;;;;5.86;85.76;97826.73;447023;1273;141798;-62
2022/09/28 21:59:01;;;;;;;13.80;10.30;;;;;;;5.85;86.24;97839.88;447049;1273;144204;-62
2022/09/28 22:09:07;;;;;;;9.00;7.30;;;;;;;5.83;86.60;97845.23;447054;1273;142477;-62
2022/09/28 22:19:12;;;;;;;8.50;6.30;;;;;;;5.76;86.77;97849.52;447018;1270;143004;-62
2022/09/28 22:29:20;;;;;;;8.20;6.30;;;;;;;5.69;87.05;97851.20;446291;1272;142239;-63
2022/09/28 22:39:26;;;;;;;6.20;4.90;;;;;;;5.58;87.08;97863.82;439189;1271;141649;-63
2022/09/28 22:49:32;;;;;;;10.80;7.50;;;;;;;5.53;87.42;97870.73;446951;1273;142111;-63
2022/09/28 22:59:37;;;;;;;14.30;8.40;;;;;;;5.46;87.58;97893.63;446040;1274;141540;-63
2022/09/28 23:09:43;;;;;;;12.00;7.70;;;;;;;5.35;87.77;97896.13;447049;1273;142181;-63
2022/09/28 23:19:49;;;;;;;8.00;7.00;;;;;;;5.30;88.13;97900.58;447057;1271;142741;-62
2022/09/28 23:29:55;;;;;;;8.70;6.20;;;;;;;5.33;88.50;97900.05;439170;1273;142898;-63
2022/09/28 23:40:01;;;;;;;7.80;6.90;;;;;;;5.34;88.82;97906.96;441695;1273;145373;-62
2022/09/28 23:50:08;;;;;;;7.30;5.90;;;;;;;5.38;88.88;97907.90;446279;1273;152973;-62
